x

Port Orford - 15 Nm West Of Port Orford, Or (46015) Wave Buoy

5:50pm - Sat 29th Aug 2015 All times are PDT. -7 hours from GMT.

  • Sig Wave height 9.8ft
  • Swell Direction
  • Peak Period 9s
  • Average Period 6s
  • Wind
    25mph, 27mph gusts
  • Sea Temp 65°f
  • Air Temp 63°f
  • Sea Pressure 1012.2mb
  • Port Orford - 15 Nm West Of Port Orford, Or
  • Port Orford - 15 Nm West Of Port Orford, Or

More Historic Weather Station data

Upgrade to MSW Pro to gain access to the past 30 days of data for over 8000 Wavebouys and Weather Stations around the globe.

Join Pro

Comparision Forecast

View Surf forecast
   
Sat 08/29 5:50pm 10ft 9s 6s 25 27 mph 1012.2mb 65f 63f
4:50pm 10ft 9s 7s 25 31 mph 1012.4mb 65f 64f
3:50pm 10.5ft 9s 7s 27 34 mph 1012.4mb 65f 63f
2:50pm 10ft 9s 7s 27 31 mph 1012.1mb 65f 63f
1:50pm 11ft 10s 7s 27 31 mph 1011.7mb 65f 63f
12:50pm 13ft 10s 7s 27 34 mph 1011.4mb 64f 64f
11:50am 12ft 9s 7s 29 36 mph 1010.9mb 64f 64f
10:50am 10ft 8s 6s 29 36 mph 1010.3mb 64f 64f
9:50am 10.5ft 8s 7s 29 38 mph 1009.6mb 64f 63f
8:50am 11ft 8s 6s 29 36 mph 1009mb 64f 63f
7:50am 10ft 7s 6s 31 38 mph 1008.5mb 64f 62f
6:50am 9.5ft 7s 6s 31 40 mph 1007.6mb 64f 62f
5:50am 9ft 7s 6s 31 38 mph 1006.9mb 64f 63f
4:50am 8ft 7s 6s 29 34 mph 1006.3mb 64f 62f
3:50am 7ft 6s 5s 29 36 mph 1005.6mb 64f 63f
2:50am 8ft 6s 5s 31 36 mph 1004.5mb 64f 63f
1:50am 7ft 6s 5s 29 38 mph 1003.9mb 62f 63f
12:50am 5.5ft 16s 5s 29 36 mph 1003.4mb 63f 63f
Fri 08/28 11:50pm 5ft 16s 5s 27 38 mph 1004.1mb 62f 64f
10:50pm 4.5ft 16s 5s 25 29 mph 1003.8mb 63f 64f
9:50pm 3.5ft 16s 7s 20 27 mph 1004.7mb 64f 63f
8:50pm 4ft 15s 8s 11 13 mph 1006mb 64f 62f
7:50pm 3.5ft 15s 8s 9 11 mph 1006.7mb 64f 61f
6:50pm 3.5ft 16s 8s 4 7 mph 1007.5mb 64f 62f
5:50pm 3.5ft 15s 7s 4
mph
1008.5mb 64f 62f
4:50pm 4ft 15s 7s 7 9 mph 1009.4mb 64f 63f
3:50pm 4ft 16s 7s 9
mph
1010.2mb 64f 64f
2:50pm 4.5ft 16s 7s 9 11 mph 1010.6mb 64f 64f
1:50pm 4ft 16s 7s 11 13 mph 1010.7mb 64f 64f
12:50pm 4ft 16s 8s 11
mph
1011mb 64f 64f
11:50am 4ft 15s 8s 11 13 mph 1011.7mb 64f 63f
10:50am 4ft 15s 8s 4 7 mph 1012.4mb 64f 62f
9:50am 4.5ft 15s 8s 7 9 mph 1012.8mb 64f 62f
8:50am 4.5ft 15s 8s 4
mph
1013.7mb 65f 61f
7:50am 4ft 15s 8s 7 9 mph 1013.4mb 65f 61f
6:50am 4.5ft 16s 7s 9 11 mph 1014mb 65f 61f
5:50am 4.5ft 15s 7s 4
mph
1015mb 65f 63f
4:50am 4.5ft 15s 7s 4
mph
1015.9mb 65f 62f
3:50am 4.5ft 15s 7s 4 7 mph 1016mb 65f 62f
2:50am 4.5ft 16s 7s 7 9 mph 1016.7mb 65f 62f
1:50am 4.5ft 16s 6s 9 11 mph 1016.8mb 65f 62f
12:50am 4.5ft 15s 6s 11 13 mph 1017.1mb 65f 62f
Thu 08/27 11:50pm 4.5ft 15s 7s 11 16 mph 1017mb 64f 61f
10:50pm 4ft 15s 6s 11 13 mph 1017.3mb 63f 61f
9:50pm 4.5ft 15s 7s 13 16 mph 1017.3mb 59f 60f
8:50pm 4ft 16s 6s 11 13 mph 1017mb 60f 61f
7:50pm 4ft 15s 6s 11 13 mph 1016.9mb 61f 62f
6:50pm 4ft 15s 7s 11 13 mph 1017.3mb 62f 60f
5:50pm 4ft 15s 7s 9 11 mph 1017.6mb 60f 61f
4:50pm 3.5ft 15s 7s 11 13 mph 1017.8mb 60f 61f
3:50pm 3.5ft 16s 7s 9 11 mph 1017.9mb 62f 61f
2:50pm 3.5ft 16s 7s 9 11 mph 1018.2mb 63f 60f
1:50pm 3.5ft 15s 8s 9 11 mph 1018.2mb 62f 59f
12:50pm 3.5ft 13s 8s 7 9 mph 1018.5mb 62f 59f
11:50am 4ft 15s 9s 9
mph
1018.3mb 62f 57f
10:50am 3.5ft 16s 9s 9
mph
1018.3mb 62f 57f
9:50am 3.5ft 14s 9s 4 7 mph 1017.9mb 61f 60f
8:50am 3.5ft 16s 9s 4 7 mph 1017.9mb 61f 59f
7:50am 3.5ft 16s 8s 7
mph
1017.6mb 61f 58f
6:50am 3.5ft 15s 8s 7
mph
1017.8mb 62f 58f
5:50am 3.5ft 15s 8s 4
mph
1018mb 62f 58f
4:50am 3ft 16s 8s 4 7 mph 1018.1mb 62f 58f
3:50am 3.5ft 16s 8s 2 4 mph 1018mb 61f 59f
2:50am 3.5ft 16s 9s 2 4 mph 1018.2mb 62f 60f
1:50am 3.5ft 16s 8s  -  2 mph 1018.1mb 61f 61f
12:50am 4ft 9s 8s 2
mph
1018mb 62f 61f
Wed 08/26 11:50pm 4ft 14s 9s 2
mph
1017.8mb 62f 60f
10:50pm 3.5ft 14s 9s 2
mph
1017.8mb 62f 60f
9:50pm 3.5ft 9s 9s 4
mph
1017.8mb 62f 60f
8:50pm 3.5ft 14s 9s 4
mph
1017.6mb 62f 60f
7:50pm 3.5ft 10s 8s 4 7 mph 1017.4mb 62f 60f
6:50pm 4ft 15s 9s 4 7 mph 1017.4mb 60f 60f
5:50pm 3.5ft 14s 8s 4 7 mph 1017.4mb 60f 59f
4:50pm 3.5ft 16s 8s 4 7 mph 1017.6mb 57f 61f
3:50pm 3.5ft 9s 8s 4 7 mph 1017.6mb 57f 60f
2:50pm 3.5ft 10s 7s 4 7 mph 1017.5mb 58f 60f
1:50pm 3.5ft 15s 8s 7
mph
1017.3mb 58f 60f
12:50pm 3.5ft 10s 8s 7
mph
1017.5mb 58f 59f
11:50am 3.5ft 10s 8s 4 7 mph 1017.2mb 58f 57f
10:50am 3.5ft 10s 8s 7
mph
1017.1mb 57f 56f
9:50am 3.5ft 15s 7s 4 7 mph 1017.1mb 55f 56f
8:50am 4ft 10s 8s 2
mph
1017.2mb 56f 56f
7:50am 3.5ft 11s 7s 2 4 mph 1016.9mb 55f 56f
6:50am 3.5ft 10s 8s 2 4 mph 1016.5mb 55f 55f
5:50am 4ft 10s 7s 4
mph
1016.2mb 54f 55f
4:50am 3.5ft 11s 7s 4
mph
1016mb 54f 55f
3:50am 3.5ft 10s 6s 7
mph
1016mb 54f 55f
2:50am 3.5ft 10s 6s 4 7 mph 1015.8mb 54f 55f
1:50am 4.5ft 10s 7s 4 7 mph 1015.9mb 54f 55f